Time;durP1;ratioP1;P1;durP2;ratioP2;P2;SDS_P1;SDS_P2;PMS_P1;PMS_P2;Temp;Humidity;BMP_temperature;BMP_pressure;BME280_temperature;BME280_humidity;BME280_pressure;Samples;Min_cycle;Max_cycle;Signal;HPM_P1;HPM_P2
2023/05/24 00:01:24;;;;;;;19.73;8.88;;;;;;;16.34;59.01;95026.19;5053761;28;20033;-77
2023/05/24 00:03:51;;;;;;;18.77;8.52;;;;;;;16.33;59.21;95026.50;5052665;28;20039;-77
2023/05/24 00:06:20;;;;;;;20.85;8.50;;;;;;;16.37;59.03;95038.97;5054384;28;20041;-77
2023/05/24 00:08:46;;;;;;;18.00;8.80;;;;;;;16.46;59.53;95055.03;5069043;28;20082;-77
2023/05/24 00:11:11;;;;;;;21.80;9.65;;;;;;;16.13;59.47;95001.94;5054325;28;20529;-77
2023/05/24 00:13:37;;;;;;;21.40;8.73;;;;;;;16.20;59.58;95029.00;5052649;28;20041;-77
2023/05/24 00:16:03;;;;;;;21.15;8.35;;;;;;;15.65;59.53;94937.00;5069211;28;20106;-77
2023/05/24 00:18:31;;;;;;;21.45;8.88;;;;;;;16.30;59.57;95040.53;5053836;28;20029;-77
2023/05/24 00:20:57;;;;;;;22.20;8.35;;;;;;;16.39;59.73;95044.81;5053843;28;20114;-77
2023/05/24 00:23:24;;;;;;;22.20;9.55;;;;;;;16.06;59.89;95004.28;5068682;28;20047;-77
2023/05/24 00:25:50;;;;;;;26.58;9.50;;;;;;;16.12;59.96;95012.94;5052123;28;20028;-77
2023/05/24 00:28:15;;;;;;;19.00;8.55;;;;;;;16.17;59.89;95013.56;5052572;28;20427;-76
2023/05/24 00:30:41;;;;;;;17.15;8.38;;;;;;;16.42;59.81;95054.84;5068345;28;20115;-77
2023/05/24 00:33:06;;;;;;;27.55;9.32;;;;;;;16.10;59.80;95015.13;5051723;28;20504;-76
2023/05/24 00:35:32;;;;;;;18.52;8.93;;;;;;;15.97;58.95;95016.84;5053168;28;20226;-77
2023/05/24 00:37:57;;;;;;;20.88;8.57;;;;;;;15.58;59.47;94947.38;5053258;28;20032;-76
2023/05/24 00:40:23;;;;;;;15.85;8.15;;;;;;;16.11;59.50;95004.13;5051647;28;20041;-76
2023/05/24 00:42:49;;;;;;;19.63;8.80;;;;;;;15.76;59.08;94957.81;5053352;28;20033;-76
2023/05/24 00:45:14;;;;;;;17.65;9.02;;;;;;;15.88;59.10;94972.44;5052727;28;20055;-76
2023/05/24 00:47:40;;;;;;;23.73;8.18;;;;;;;15.99;59.16;94984.44;5052717;28;20153;-77
2023/05/24 00:50:08;;;;;;;19.30;8.48;;;;;;;16.21;59.41;95041.28;5068306;28;20039;-76
2023/05/24 00:52:35;;;;;;;17.75;8.18;;;;;;;16.23;59.51;95048.22;5051452;28;20361;-76
2023/05/24 00:55:01;;;;;;;16.98;8.13;;;;;;;15.88;59.78;94993.84;5050527;28;20060;-76
2023/05/24 00:57:27;;;;;;;16.92;8.45;;;;;;;16.05;59.75;95031.34;5052845;28;20110;-77
2023/05/24 00:59:55;;;;;;;14.23;7.65;;;;;;;15.82;60.13;95018.06;5052542;28;20051;-77
2023/05/24 01:02:20;;;;;;;18.83;8.30;;;;;;;15.99;60.17;95045.97;5052494;28;20585;-76
2023/05/24 01:04:47;;;;;;;18.75;7.50;;;;;;;15.48;60.01;94969.00;5052688;28;20033;-77
2023/05/24 01:07:13;;;;;;;13.98;8.10;;;;;;;15.90;60.13;95037.13;5051607;28;20116;-76
2023/05/24 01:09:49;;;;;;;20.45;8.15;;;;;;;15.86;60.51;95044.97;5050515;28;20123;-77
2023/05/24 01:12:24;;;;;;;23.13;8.05;;;;;;;15.81;60.65;95050.44;5050648;28;20033;-77
2023/05/24 01:15:18;;;;;;;14.10;8.55;;;;;;;15.76;60.94;95058.63;5052143;28;20024;-76
2023/05/24 01:18:00;;;;;;;15.38;7.55;;;;;;;15.62;60.77;95032.00;5051951;28;20480;-76
2023/05/24 01:20:29;;;;;;;15.75;7.05;;;;;;;15.67;60.91;95057.78;5052780;28;20033;-76
2023/05/24 01:23:00;;;;;;;16.55;7.22;;;;;;;15.64;61.26;95058.41;5050204;28;20037;-76
2023/05/24 01:25:45;;;;;;;14.45;7.47;;;;;;;15.63;61.31;95067.53;5050189;28;20033;-76
2023/05/24 01:28:11;;;;;;;13.63;7.30;;;;;;;15.56;61.04;95053.81;5050190;28;20053;-76
2023/05/24 01:30:41;;;;;;;17.67;8.70;;;;;;;15.64;61.28;95067.19;5052048;28;20037;-76
2023/05/24 01:33:07;;;;;;;19.05;7.78;;;;;;;15.49;61.18;95045.41;5051716;28;20033;-77
2023/05/24 01:35:38;;;;;;;20.17;7.97;;;;;;;15.39;61.45;95033.09;5050601;28;20144;-76
2023/05/24 01:38:04;;;;;;;;;;;;;;;15.58;61.53;95062.28;5052471;28;20032;-76
2023/05/24 01:40:29;;;;;;;22.65;7.63;;;;;;;15.49;61.19;95038.16;5052101;28;20749;-76
2023/05/24 01:43:02;;;;;;;15.10;8.63;;;;;;;15.22;61.15;94999.06;5050874;28;20051;-78
2023/05/24 01:45:52;;;;;;;15.65;7.18;;;;;;;15.62;61.12;95053.38;5052987;28;20040;-77
2023/05/24 01:48:33;;;;;;;16.73;7.17;;;;;;;15.55;61.22;95055.69;5049793;28;20124;-77
2023/05/24 01:51:00;;;;;;;16.67;8.00;;;;;;;15.44;61.44;95041.78;5049931;28;20087;-77
2023/05/24 01:53:32;;;;;;;12.13;7.22;;;;;;;15.31;61.38;95034.63;5050114;28;20060;-77
2023/05/24 01:56:01;;;;;;;17.83;8.13;;;;;;;15.42;61.37;95060.00;5051632;28;20472;-77
2023/05/24 01:58:29;;;;;;;14.07;7.43;;;;;;;15.39;61.82;95041.91;5051026;28;20092;-77
2023/05/24 02:00:55;;;;;;;16.15;7.75;;;;;;;15.23;61.79;95032.72;5051421;28;20044;-77
2023/05/24 02:03:20;;;;;;;14.77;7.40;;;;;;;15.27;62.03;95057.69;5049883;28;20036;-77
2023/05/24 02:05:46;;;;;;;15.75;7.63;;;;;;;15.01;62.03;95022.84;5051397;28;20045;-77
2023/05/24 02:08:12;;;;;;;18.75;7.75;;;;;;;15.21;62.24;95056.25;5065541;28;20634;-77
2023/05/24 02:10:39;;;;;;;17.70;7.22;;;;;;;14.89;62.15;95003.88;5050807;28;20033;-77
2023/05/24 02:13:05;;;;;;;13.48;6.65;;;;;;;14.85;62.01;95002.94;5066350;28;20041;-77
2023/05/24 02:15:31;;;;;;;13.52;7.10;;;;;;;14.78;62.31;95021.25;5051008;28;20031;-77
2023/05/24 02:17:57;;;;;;;12.10;6.60;;;;;;;14.66;62.61;95005.78;5051412;28;20033;-77
2023/05/24 02:20:23;;;;;;;12.13;7.70;;;;;;;14.75;62.17;95021.84;5050849;28;20029;-77
2023/05/24 02:22:48;;;;;;;17.67;8.25;;;;;;;14.36;63.29;94990.44;5050636;28;20035;-77
2023/05/24 02:25:14;;;;;;;18.75;8.55;;;;;;;14.54;63.15;95007.41;5049227;28;20121;-77
2023/05/24 02:27:40;;;;;;;16.10;7.78;;;;;;;14.79;63.06;95040.75;5050859;28;20103;-77
2023/05/24 02:30:06;;;;;;;11.50;7.32;;;;;;;14.80;63.22;95040.41;5051069;28;20032;-77
2023/05/24 02:32:33;;;;;;;15.48;7.40;;;;;;;14.65;62.96;95022.06;5049064;28;20026;-77
2023/05/24 02:35:00;;;;;;;14.32;7.85;;;;;;;14.73;63.15;95031.25;5051023;28;20029;-77
2023/05/24 02:37:26;;;;;;;12.23;7.25;;;;;;;14.53;63.21;94995.94;5049568;28;20033;-77
2023/05/24 02:39:52;;;;;;;16.38;8.43;;;;;;;14.54;62.89;94994.84;5049544;28;20509;-77
2023/05/24 02:42:17;;;;;;;11.88;7.30;;;;;;;14.67;63.01;95011.91;5049635;28;20098;-77
2023/05/24 02:44:46;;;;;;;13.73;7.97;;;;;;;14.86;63.33;95039.22;5049353;28;20033;-77
2023/05/24 02:47:12;;;;;;;20.70;7.72;;;;;;;14.86;63.42;95041.91;5049292;28;20036;-77
2023/05/24 02:49:37;;;;;;;12.52;7.95;;;;;;;14.85;63.52;95047.53;5050523;28;20025;-76
2023/05/24 02:52:04;;;;;;;17.00;8.40;;;;;;;14.85;63.37;95037.63;5051761;28;20029;-77
2023/05/24 02:54:29;;;;;;;18.90;7.75;;;;;;;14.57;63.43;94999.56;5066394;28;20033;-77
2023/05/24 02:56:55;;;;;;;15.63;7.80;;;;;;;14.81;63.35;95030.53;5050618;28;20508;-77
2023/05/24 02:59:21;;;;;;;17.02;8.00;;;;;;;14.91;63.19;95046.31;5032561;28;20183;-77
2023/05/24 03:01:47;;;;;;;22.30;8.10;;;;;;;14.81;63.55;95038.53;5065900;28;20029;-77
2023/05/24 03:04:12;;;;;;;18.10;8.70;;;;;;;14.80;63.42;95039.66;5049459;28;20113;-77
2023/05/24 03:06:38;;;;;;;15.77;7.47;;;;;;;14.67;63.45;95019.91;5050375;28;20029;-77
2023/05/24 03:09:04;;;;;;;16.58;8.48;;;;;;;14.69;63.39;95052.44;5050595;28;20029;-77
2023/05/24 03:11:30;;;;;;;19.92;9.52;;;;;;;14.62;63.34;95026.16;5050519;28;20086;-77
2023/05/24 03:13:55;;;;;;;18.88;9.43;;;;;;;14.76;63.26;95049.34;5049468;28;20040;-78
2023/05/24 03:16:21;;;;;;;22.30;8.88;;;;;;;14.81;63.03;95052.66;5050930;28;20044;-78
2023/05/24 03:18:49;;;;;;;15.23;7.20;;;;;;;14.83;63.30;95063.06;5050616;28;20044;-78
2023/05/24 03:21:15;;;;;;;16.73;8.68;;;;;;;14.73;63.06;95041.91;5052990;28;20033;-78
2023/05/24 03:23:40;;;;;;;14.15;7.97;;;;;;;14.68;63.41;95035.63;5054012;28;20044;-78
2023/05/24 03:26:06;;;;;;;16.60;8.25;;;;;;;14.65;63.54;95040.75;5053843;28;20044;-78
2023/05/24 03:28:32;;;;;;;20.80;8.23;;;;;;;14.74;63.42;95048.84;5053569;28;20053;-78
2023/05/24 03:30:58;;;;;;;14.85;8.18;;;;;;;14.66;63.58;95037.00;5054064;28;20043;-78
2023/05/24 03:33:23;;;;;;;22.98;8.52;;;;;;;14.68;63.63;95037.50;5069130;28;20065;-78
2023/05/24 03:35:49;;;;;;;18.98;8.32;;;;;;;14.61;63.45;95029.91;5054238;28;20048;-78
2023/05/24 03:38:15;;;;;;;17.77;8.88;;;;;;;14.90;63.33;95074.88;5069358;28;20021;-78
2023/05/24 03:40:40;;;;;;;17.90;8.75;;;;;;;14.82;63.55;95064.94;5052652;28;20533;-78
2023/05/24 03:43:06;;;;;;;17.67;9.57;;;;;;;14.88;63.36;95065.59;5052399;28;20033;-78
2023/05/24 03:45:31;;;;;;;22.63;9.73;;;;;;;14.93;63.37;95071.63;5069048;28;20032;-78
2023/05/24 03:47:57;;;;;;;26.33;10.00;;;;;;;14.98;62.78;95065.38;5053785;28;20535;-78
2023/05/24 03:50:22;;;;;;;21.90;9.93;;;;;;;15.03;63.19;95070.56;5053975;28;20032;-78
2023/05/24 03:52:48;;;;;;;19.45;9.82;;;;;;;15.13;62.94;95077.56;5053574;28;20091;-78
2023/05/24 03:55:15;;;;;;;19.55;9.45;;;;;;;15.13;63.12;95075.69;5054415;28;20063;-78
2023/05/24 03:57:41;;;;;;;27.30;10.85;;;;;;;15.15;62.93;95078.06;5052200;28;20032;-78
2023/05/24 04:00:08;;;;;;;24.85;10.15;;;;;;;15.04;62.68;95066.81;5053807;28;20380;-78
2023/05/24 04:02:36;;;;;;;22.25;9.65;;;;;;;14.76;62.56;95034.13;5054050;28;20691;-78
2023/05/24 04:05:03;;;;;;;25.80;9.32;;;;;;;15.23;62.42;95078.13;5051648;28;20033;-78
2023/05/24 04:07:32;;;;;;;23.90;8.63;;;;;;;15.11;61.75;95055.69;5069070;28;20044;-78
2023/05/24 04:09:58;;;;;;;20.67;8.48;;;;;;;14.97;61.21;95034.41;5052589;28;20028;-78
2023/05/24 04:12:23;;;;;;;28.08;7.93;;;;;;;15.25;61.21;95075.16;5053785;28;20028;-78
2023/05/24 04:14:50;;;;;;;19.15;8.63;;;;;;;15.29;61.07;95076.09;5052011;28;20143;-78
2023/05/24 04:17:16;;;;;;;23.00;8.07;;;;;;;15.40;61.40;95088.13;5052238;28;20466;-78
2023/05/24 04:19:41;;;;;;;24.08;8.98;;;;;;;15.14;61.42;95053.22;5068563;28;20040;-78
2023/05/24 04:22:07;;;;;;;20.40;8.45;;;;;;;15.28;61.48;95056.59;5052054;28;20025;-78
2023/05/24 04:24:32;;;;;;;30.25;9.00;;;;;;;15.40;61.19;95061.41;5051898;28;20060;-78
2023/05/24 04:26:57;;;;;;;17.13;8.30;;;;;;;15.31;61.04;95044.53;5051585;28;20110;-78
2023/05/24 04:29:25;;;;;;;32.83;9.70;;;;;;;15.52;60.98;95066.97;5051482;28;20041;-78
2023/05/24 04:31:52;;;;;;;18.15;8.20;;;;;;;15.50;61.04;95060.34;5067577;28;20056;-78
2023/05/24 04:34:21;;;;;;;23.02;8.57;;;;;;;15.26;61.08;95032.06;5052911;28;20116;-78
2023/05/24 04:36:48;;;;;;;16.15;8.73;;;;;;;15.62;61.08;95074.75;5052526;28;20494;-78
2023/05/24 04:39:14;;;;;;;15.15;8.48;;;;;;;15.57;60.98;95066.84;5052434;28;20491;-78
2023/05/24 04:41:40;;;;;;;21.95;9.93;;;;;;;15.62;60.56;95072.09;5052806;28;20039;-78
2023/05/24 04:44:06;;;;;;;29.67;9.88;;;;;;;15.61;60.73;95070.50;5053035;28;20107;-78
2023/05/24 04:46:34;;;;;;;29.52;9.38;;;;;;;15.62;60.51;95060.59;5053157;28;20532;-78
2023/05/24 04:49:00;;;;;;;16.90;9.60;;;;;;;15.75;59.90;95078.44;5051257;28;20033;-78
2023/05/24 04:51:26;;;;;;;46.50;10.00;;;;;;;15.85;59.80;95088.06;5052589;28;20056;-78
2023/05/24 04:53:52;;;;;;;24.02;9.57;;;;;;;15.82;59.95;95079.56;5051327;28;20048;-78
2023/05/24 04:56:18;;;;;;;21.05;8.98;;;;;;;16.05;60.20;95108.91;5052577;28;20065;-78
2023/05/24 04:58:43;;;;;;;23.95;8.75;;;;;;;15.94;60.23;95095.03;5051259;28;20037;-78
2023/05/24 05:01:10;;;;;;;15.07;8.45;;;;;;;15.88;60.16;95079.41;5052826;28;20123;-78
2023/05/24 05:03:35;;;;;;;16.13;9.05;;;;;;;15.97;59.68;95102.44;5050721;28;20128;-78
2023/05/24 05:06:00;;;;;;;16.67;9.45;;;;;;;16.01;59.55;95092.72;5052177;28;20096;-78
2023/05/24 05:08:26;;;;;;;17.23;9.18;;;;;;;15.97;59.91;95086.38;5052248;28;20115;-78
2023/05/24 05:10:51;;;;;;;16.95;10.00;;;;;;;16.19;59.79;95117.59;5050348;28;20162;-78
2023/05/24 05:13:17;;;;;;;18.80;10.30;;;;;;;16.18;59.76;95116.03;5050349;28;20498;-78
2023/05/24 05:15:43;;;;;;;22.05;10.57;;;;;;;16.02;59.26;95088.16;5051830;28;20040;-78
2023/05/24 05:18:08;;;;;;;23.40;10.90;;;;;;;16.28;59.15;95121.09;5051833;28;20032;-78
2023/05/24 05:20:34;;;;;;;18.85;10.32;;;;;;;16.15;59.16;95090.69;5051854;28;20040;-78
2023/05/24 05:22:59;;;;;;;25.27;10.60;;;;;;;16.33;59.15;95122.84;5050526;28;20036;-78
2023/05/24 05:25:25;;;;;;;17.48;9.90;;;;;;;16.17;59.01;95085.06;5051577;28;20033;-78
2023/05/24 05:27:50;;;;;;;23.80;12.05;;;;;;;16.26;58.17;95088.50;5049808;28;20102;-78
2023/05/24 05:30:16;;;;;;;20.90;11.18;;;;;;;16.02;58.04;95042.66;5051303;28;20045;-78
2023/05/24 05:32:41;;;;;;;28.20;12.38;;;;;;;16.49;58.03;95118.63;5052975;28;20107;-77
2023/05/24 05:35:07;;;;;;;24.15;12.00;;;;;;;16.47;57.87;95107.47;5053313;28;20036;-77
2023/05/24 05:37:33;;;;;;;24.50;12.68;;;;;;;16.51;57.38;95095.03;5050968;28;20059;-77
2023/05/24 05:39:58;;;;;;;23.88;12.23;;;;;;;16.51;57.28;95093.16;5051220;28;20602;-77
2023/05/24 05:42:23;;;;;;;17.48;10.60;;;;;;;16.58;57.09;95098.81;5051629;28;20072;-77
2023/05/24 05:44:49;;;;;;;24.48;11.20;;;;;;;16.73;57.22;95123.59;5051433;28;20508;-77
2023/05/24 05:47:14;;;;;;;22.48;11.02;;;;;;;16.83;56.72;95121.41;5052376;28;20037;-77
2023/05/24 05:49:40;;;;;;;20.85;10.30;;;;;;;16.68;56.94;95107.69;5052810;28;20139;-77
2023/05/24 05:52:06;;;;;;;22.58;9.23;;;;;;;16.72;56.42;95111.31;5051571;28;20400;-77
2023/05/24 05:54:31;;;;;;;15.80;9.80;;;;;;;16.55;56.57;95093.31;5053646;28;20056;-77
2023/05/24 05:56:57;;;;;;;14.93;9.27;;;;;;;16.94;56.22;95122.66;5053187;28;20098;-77
2023/05/24 05:59:22;;;;;;;25.60;9.98;;;;;;;16.98;56.14;95122.84;5035136;28;20036;-77
2023/05/24 06:01:48;;;;;;;19.50;9.35;;;;;;;16.79;55.91;95104.38;5053326;28;20047;-77
2023/05/24 06:04:17;;;;;;;16.60;9.30;;;;;;;16.97;56.19;95118.59;5051436;28;20037;-77
2023/05/24 06:06:49;;;;;;;18.55;9.82;;;;;;;17.03;56.07;95132.59;5053158;28;20124;-77
2023/05/24 06:09:15;;;;;;;14.48;8.70;;;;;;;17.11;55.94;95129.13;5052733;28;20106;-77
2023/05/24 06:11:43;;;;;;;20.13;9.88;;;;;;;16.93;56.27;95096.22;5052791;28;20040;-77
2023/05/24 06:14:12;;;;;;;25.58;9.52;;;;;;;17.14;56.20;95123.94;5052466;28;20547;-77
2023/05/24 06:16:42;;;;;;;25.33;10.32;;;;;;;16.80;55.75;95059.66;5050942;28;20491;-77
2023/05/24 06:19:07;;;;;;;18.60;9.35;;;;;;;16.88;56.13;95086.44;5051195;28;20041;-77
2023/05/24 06:21:35;;;;;;;25.58;10.07;;;;;;;17.07;55.85;95096.84;5050820;28;20033;-77
2023/05/24 06:24:01;;;;;;;24.63;11.07;;;;;;;16.92;56.19;95111.50;5052768;28;20036;-77
2023/05/24 06:26:26;;;;;;;18.40;10.73;;;;;;;17.28;55.67;95142.53;5053060;28;20209;-77
2023/05/24 06:28:52;;;;;;;20.10;9.65;;;;;;;17.15;55.95;95119.38;5051678;28;20123;-77
2023/05/24 06:31:17;;;;;;;16.50;9.60;;;;;;;17.40;55.61;95131.16;5053613;28;20096;-77
2023/05/24 06:33:43;;;;;;;19.30;10.13;;;;;;;17.13;55.94;95094.78;5052322;28;20033;-77
2023/05/24 06:36:09;;;;;;;20.63;9.68;;;;;;;17.38;55.93;95128.03;5052850;28;20384;-77
2023/05/24 06:38:35;;;;;;;15.52;9.77;;;;;;;17.51;55.57;95129.75;5068122;28;20037;-77
2023/05/24 06:41:00;;;;;;;20.23;9.57;;;;;;;17.44;55.61;95108.78;5051406;28;20574;-77
2023/05/24 06:43:26;;;;;;;20.05;9.38;;;;;;;17.43;55.62;95111.78;5052958;28;20113;-77
2023/05/24 06:45:51;;;;;;;24.42;9.55;;;;;;;17.62;55.17;95128.34;5052233;28;20048;-77
2023/05/24 06:48:17;;;;;;;28.08;9.48;;;;;;;17.76;54.90;95123.59;5051044;28;20506;-77
2023/05/24 06:50:43;;;;;;;17.33;9.18;;;;;;;17.74;55.03;95107.81;5051784;28;20048;-77
2023/05/24 06:53:10;;;;;;;21.38;9.73;;;;;;;17.74;55.05;95125.78;5053626;28;20404;-77
2023/05/24 06:55:36;;;;;;;18.88;10.85;;;;;;;17.55;54.65;95080.53;5055961;28;20109;-77
2023/05/24 06:58:01;;;;;;;15.90;8.27;;;;;;;17.94;54.33;95116.25;5054551;28;20083;-77
2023/05/24 07:00:27;;;;;;;20.60;9.23;;;;;;;18.12;53.99;95131.19;5071325;28;20787;-77
2023/05/24 07:02:52;;;;;;;18.85;8.50;;;;;;;18.06;53.81;95100.28;5054438;28;20033;-77
2023/05/24 07:05:18;;;;;;;17.58;9.88;;;;;;;18.25;53.55;95124.03;5056743;28;20039;-77
2023/05/24 07:07:44;;;;;;;18.10;9.23;;;;;;;18.10;53.25;95093.16;5056659;28;20055;-77
2023/05/24 07:10:10;;;;;;;23.17;9.30;;;;;;;17.91;53.96;95074.00;5056776;28;20173;-77
2023/05/24 07:12:39;;;;;;;20.90;9.40;;;;;;;17.99;53.42;95060.53;5055486;28;20096;-77
2023/05/24 07:15:05;;;;;;;12.50;7.25;;;;;;;17.77;53.29;95039.34;5054715;28;20045;-77
2023/05/24 07:17:31;;;;;;;44.42;11.40;;;;;;;18.20;53.69;95110.78;5056139;28;20055;-77
2023/05/24 07:19:57;;;;;;;21.70;10.93;;;;;;;18.02;54.24;95085.91;5058697;28;20519;-77
2023/05/24 07:22:24;;;;;;;20.23;11.02;;;;;;;18.07;53.74;95097.28;5055083;28;20107;-77
2023/05/24 07:24:50;;;;;;;24.95;10.20;;;;;;;18.18;53.71;95091.53;5071777;28;20503;-77
2023/05/24 07:27:15;;;;;;;23.35;10.25;;;;;;;18.18;53.40;95064.69;5056127;28;20088;-77
2023/05/24 07:29:41;;;;;;;20.52;10.88;;;;;;;18.21;53.55;95077.47;5055823;28;20397;-77
2023/05/24 07:32:07;;;;;;;20.60;9.70;;;;;;;18.38;53.00;95109.63;5053723;28;20032;-77
2023/05/24 07:34:33;;;;;;;20.05;10.02;;;;;;;18.57;53.13;95125.31;5053868;28;20140;-77
2023/05/24 07:37:00;;;;;;;20.30;8.68;;;;;;;18.46;52.73;95096.13;5054050;28;20037;-77
2023/05/24 07:39:26;;;;;;;28.50;9.27;;;;;;;18.30;52.60;95078.22;5054077;28;20110;-77
2023/05/24 07:41:53;;;;;;;24.30;10.73;;;;;;;18.36;53.40;95079.59;5053910;28;20025;-77
2023/05/24 07:44:18;;;;;;;22.50;10.10;;;;;;;18.62;53.19;95117.84;5054881;28;20396;-77
2023/05/24 07:46:44;;;;;;;19.70;8.80;;;;;;;18.55;52.50;95112.19;5055689;28;20035;-77
2023/05/24 07:49:10;;;;;;;25.95;9.43;;;;;;;18.52;53.11;95132.44;5054169;28;20445;-77
2023/05/24 07:51:35;;;;;;;12.20;6.97;;;;;;;18.58;51.11;95110.78;5054272;28;20116;-77
2023/05/24 07:54:01;;;;;;;14.20;7.90;;;;;;;18.80;51.87;95123.91;5055098;28;20063;-77
2023/05/24 07:56:26;;;;;;;25.00;9.90;;;;;;;18.61;52.85;95072.53;5053660;28;20032;-77
2023/05/24 07:58:55;;;;;;;21.85;10.73;;;;;;;18.93;53.63;95108.66;5053726;28;20029;-77
2023/05/24 08:01:21;;;;;;;22.42;9.85;;;;;;;18.42;52.24;95038.03;5054020;28;20052;-77
2023/05/24 08:03:47;;;;;;;24.92;9.50;;;;;;;18.75;51.68;95076.56;5053765;28;20028;-77
2023/05/24 08:06:12;;;;;;;16.55;7.55;;;;;;;18.96;50.56;95103.41;5052437;28;20032;-76
2023/05/24 08:08:39;;;;;;;19.30;7.90;;;;;;;19.01;50.03;95079.03;5053349;28;20040;-77
2023/05/24 08:11:05;;;;;;;12.05;7.65;;;;;;;19.20;50.04;95098.16;5052956;28;20040;-77
2023/05/24 08:13:30;;;;;;;26.33;7.55;;;;;;;19.32;48.95;95097.41;5052588;28;20041;-77
2023/05/24 08:15:57;;;;;;;18.30;8.10;;;;;;;18.91;49.53;95012.25;5052767;28;20060;-77
2023/05/24 08:18:22;;;;;;;23.35;8.50;;;;;;;19.19;50.57;95056.25;5054247;28;20025;-77
2023/05/24 08:20:48;;;;;;;21.50;7.63;;;;;;;19.34;50.43;95067.50;5053821;28;20032;-77
2023/05/24 08:23:13;;;;;;;17.60;8.75;;;;;;;19.53;49.25;95111.63;5053562;28;20091;-77
2023/05/24 08:25:39;;;;;;;20.55;8.07;;;;;;;19.55;48.59;95098.66;5054262;28;20029;-77
2023/05/24 08:28:05;;;;;;;15.38;6.25;;;;;;;19.59;46.66;95077.28;5052927;28;20045;-77
2023/05/24 08:30:31;;;;;;;12.20;5.50;;;;;;;19.52;44.45;95069.75;5053234;28;20418;-77
2023/05/24 08:32:57;;;;;;;8.45;3.88;;;;;;;19.25;41.13;95022.69;5054607;28;20098;-77
2023/05/24 08:35:22;;;;;;;15.65;7.38;;;;;;;19.33;44.27;95025.59;5054149;28;20483;-77
2023/05/24 08:37:48;;;;;;;18.50;6.03;;;;;;;19.79;44.56;95083.69;5052969;28;20028;-77
2023/05/24 08:40:14;;;;;;;12.20;5.00;;;;;;;19.98;42.79;95117.06;5052653;28;20198;-77
2023/05/24 08:42:40;;;;;;;16.08;5.15;;;;;;;19.94;42.81;95107.25;5053584;28;20070;-77
2023/05/24 08:45:13;;;;;;;9.70;4.80;;;;;;;20.03;42.88;95105.25;5052161;28;20128;-77
2023/05/24 08:47:39;;;;;;;6.93;4.05;;;;;;;20.01;43.65;95075.97;5052125;28;20040;-77
2023/05/24 08:50:06;;;;;;;7.70;4.70;;;;;;;20.23;43.31;95107.06;5054522;28;20497;-77
2023/05/24 08:52:32;;;;;;;16.33;4.70;;;;;;;20.12;42.87;95067.47;5069607;28;20044;-77
2023/05/24 08:54:58;;;;;;;9.77;4.28;;;;;;;20.31;42.05;95087.31;5052644;28;20033;-77
2023/05/24 08:57:26;;;;;;;10.75;4.20;;;;;;;20.21;41.59;95066.25;5053800;28;20112;-78
2023/05/24 08:59:54;;;;;;;11.35;4.00;;;;;;;20.52;41.13;95105.31;5051875;28;20028;-77
2023/05/24 09:02:21;;;;;;;4.93;3.47;;;;;;;20.36;38.90;95075.59;5053628;28;20451;-78
2023/05/24 09:04:48;;;;;;;9.02;3.22;;;;;;;20.60;38.21;95094.41;5068970;28;20411;-78
2023/05/24 09:07:17;;;;;;;7.47;3.67;;;;;;;20.69;39.04;95095.06;5053577;28;20349;-77
2023/05/24 09:09:46;;;;;;;10.35;4.18;;;;;;;20.80;40.69;95092.72;5051876;28;20036;-78
2023/05/24 09:12:16;;;;;;;6.30;3.75;;;;;;;20.69;41.43;95070.81;5053165;28;20033;-78
2023/05/24 09:14:46;;;;;;;7.15;3.47;;;;;;;20.89;40.43;95098.75;5053596;28;20063;-78
2023/05/24 09:17:15;;;;;;;6.72;4.00;;;;;;;20.95;40.72;95080.44;5052680;28;20024;-78
2023/05/24 09:19:47;;;;;;;8.38;3.95;;;;;;;20.97;41.35;95078.97;5068186;28;20049;-78
2023/05/24 09:22:13;;;;;;;6.43;4.10;;;;;;;20.95;39.01;95070.44;5052737;28;20191;-77
2023/05/24 09:24:43;;;;;;;15.32;4.05;;;;;;;21.15;38.25;95096.44;5052124;28;20029;-77
2023/05/24 09:27:09;;;;;;;9.65;4.22;;;;;;;21.14;38.53;95072.50;5068098;28;20048;-78
2023/05/24 09:29:35;;;;;;;7.13;3.00;;;;;;;21.32;39.94;95091.91;5052877;28;20037;-77
2023/05/24 09:32:03;;;;;;;7.32;3.75;;;;;;;21.30;37.62;95089.56;5051794;28;20079;-78
2023/05/24 09:34:28;;;;;;;7.65;4.30;;;;;;;21.40;38.15;95089.06;5052244;28;20377;-78
2023/05/24 09:36:54;;;;;;;11.52;4.07;;;;;;;21.41;39.97;95073.66;5067602;28;20036;-78
2023/05/24 09:39:21;;;;;;;6.20;3.40;;;;;;;21.48;37.64;95088.13;5052605;28;20116;-78
2023/05/24 09:41:55;;;;;;;7.20;2.85;;;;;;;21.91;40.71;95075.75;5053246;28;20044;-77
2023/05/24 09:44:27;;;;;;;9.05;3.63;;;;;;;22.71;37.42;95072.66;5068315;28;20037;-78
2023/05/24 09:47:00;;;;;;;4.90;3.63;;;;;;;23.62;37.11;95028.94;5053085;28;20029;-78
2023/05/24 09:49:25;;;;;;;7.15;3.67;;;;;;;24.95;33.98;95078.31;5050781;28;20052;-78
2023/05/24 09:51:51;;;;;;;9.90;3.72;;;;;;;25.90;33.08;95088.00;5051935;28;20040;-78
2023/05/24 09:54:17;;;;;;;5.45;3.10;;;;;;;26.66;30.58;95080.13;5051367;28;20475;-78
2023/05/24 09:56:46;;;;;;;7.68;3.03;;;;;;;27.57;28.13;95074.41;5051548;28;20134;-78
2023/05/24 09:59:13;;;;;;;9.02;3.05;;;;;;;27.91;27.37;95087.75;5053554;28;20496;-78
2023/05/24 10:01:38;;;;;;;5.40;3.03;;;;;;;28.34;27.15;95083.16;5053243;28;20402;-78
2023/05/24 10:04:07;;;;;;;5.95;2.95;;;;;;;29.21;26.96;95077.22;5051707;28;20101;-78
2023/05/24 10:06:36;;;;;;;9.70;3.03;;;;;;;29.76;25.88;95044.59;5053109;28;20033;-78
2023/05/24 10:09:06;;;;;;;5.03;3.17;;;;;;;30.07;24.97;95070.19;5052362;28;20033;-79
2023/05/24 10:11:35;;;;;;;5.22;3.05;;;;;;;30.31;24.22;95050.09;5051501;28;20093;-78
2023/05/24 10:14:03;;;;;;;8.70;3.55;;;;;;;30.25;23.87;95068.91;5051344;28;20040;-78
2023/05/24 10:16:29;;;;;;;6.03;2.92;;;;;;;29.56;24.26;95017.00;5052270;28;20036;-78
2023/05/24 10:18:55;;;;;;;4.45;2.92;;;;;;;30.62;23.76;95065.50;5050825;28;20021;-78
2023/05/24 10:21:23;;;;;;;4.28;2.55;;;;;;;30.69;22.64;95054.50;5051560;28;20052;-79
2023/05/24 10:23:51;;;;;;;5.75;2.67;;;;;;;30.98;21.64;95065.94;5052750;28;20029;-78
2023/05/24 10:26:18;;;;;;;6.22;2.67;;;;;;;31.12;21.79;95067.78;5051649;28;20029;-78
2023/05/24 10:28:47;;;;;;;5.63;2.95;;;;;;;31.25;21.85;95018.72;5053360;28;20052;-78
2023/05/24 10:31:28;;;;;;;15.10;2.92;;;;;;;31.71;22.06;95053.78;5056752;28;20039;-78
2023/05/24 10:33:57;;;;;;;4.35;2.58;;;;;;;31.79;22.54;95034.09;5055331;28;20125;-78
2023/05/24 10:36:24;;;;;;;9.35;3.00;;;;;;;31.89;22.75;95015.91;5055423;28;20039;-78
2023/05/24 10:38:51;;;;;;;4.47;3.20;;;;;;;32.16;21.94;95052.38;5057552;28;20399;-78
2023/05/24 10:41:18;;;;;;;7.55;2.80;;;;;;;32.01;21.50;95048.25;5055426;28;20029;-78
2023/05/24 10:43:46;;;;;;;9.38;2.85;;;;;;;32.19;21.36;95046.03;5038763;28;20029;-78
2023/05/24 10:46:15;;;;;;;4.85;2.58;;;;;;;31.79;22.10;95045.06;5054923;28;20052;-78
2023/05/24 10:48:41;;;;;;;7.70;2.80;;;;;;;32.18;23.17;95043.75;5056220;28;20033;-78
2023/05/24 10:51:31;;;;;;;6.03;2.58;;;;;;;32.15;20.93;95039.06;5055321;28;20098;-78
2023/05/24 10:53:57;;;;;;;6.45;3.03;;;;;;;32.14;22.24;95032.78;5054931;28;20036;-79
2023/05/24 10:56:26;;;;;;;6.40;2.83;;;;;;;31.43;21.56;94980.91;5055384;28;20033;-78
2023/05/24 10:58:56;;;;;;;4.30;2.53;;;;;;;32.12;21.33;95032.41;5054539;28;20064;-78
2023/05/24 11:01:32;;;;;;;5.15;2.53;;;;;;;32.24;23.35;95022.09;5054872;28;20089;-78
2023/05/24 11:04:07;;;;;;;7.03;2.97;;;;;;;32.25;23.15;95027.16;5056195;28;20048;-79
2023/05/24 11:06:55;;;;;;;5.97;2.90;;;;;;;32.39;22.76;95026.16;5056425;28;20052;-78
2023/05/24 11:09:22;;;;;;;3.78;2.85;;;;;;;32.19;22.30;95034.31;5056128;28;20072;-78
2023/05/24 11:11:49;;;;;;;6.50;2.35;;;;;;;32.35;21.58;95031.69;5053994;28;20253;-78
2023/05/24 11:14:27;;;;;;;7.55;3.22;;;;;;;32.61;21.23;95018.31;5055776;28;20108;-78
2023/05/24 11:16:53;;;;;;;6.15;3.00;;;;;;;32.78;23.41;95025.50;5056204;28;20085;-78
2023/05/24 11:19:22;;;;;;;3.33;2.53;;;;;;;32.89;21.35;95028.81;5054489;28;20062;-78
2023/05/24 11:21:49;;;;;;;5.50;2.97;;;;;;;32.79;21.02;95014.09;5055405;28;20125;-78
2023/05/24 11:24:19;;;;;;;3.75;2.72;;;;;;;32.70;20.51;95027.59;5070532;28;20475;-78
2023/05/24 11:26:45;;;;;;;5.10;3.38;;;;;;;32.80;20.71;95023.91;5070314;28;20037;-79